Time;durP1;ratioP1;P1;durP2;ratioP2;P2;SDS_P1;SDS_P2;PMS_P1;PMS_P2;Temp;Humidity;BMP_temperature;BMP_pressure;BME280_temperature;BME280_humidity;BME280_pressure;Samples;Min_cycle;Max_cycle;Signal;HPM_P1;HPM_P2
2022/06/04 00:01:33;;;;;;;;;;;;;;;15.94;67.13;101056.16;1668945;85;21062;-71
2022/06/04 00:04:01;;;;;;;4.00;3.80;;;;;;;15.99;67.54;101052.02;1675244;85;20403;-70
2022/06/04 00:06:27;;;;;;;5.10;4.20;;;;;;;15.93;67.52;101055.02;1682034;85;21610;-70
2022/06/04 00:08:55;;;;;;;9.30;8.50;;;;;;;15.94;67.21;101059.38;1677914;85;21558;-70
2022/06/04 00:16:51;;;;;;;10.40;9.60;;;;;;;15.81;70.61;101055.33;1623139;88;21031;-70
2022/06/04 00:19:17;;;;;;;;;;;;;;;15.69;71.64;101059.08;1588574;89;21111;-70
2022/06/04 00:21:44;;;;;;;4.53;4.20;;;;;;;15.60;72.37;101058.47;1623262;87;20189;-70
2022/06/04 00:24:10;;;;;;;;;;;;;;;15.50;71.52;101056.67;1612683;88;21036;-70
2022/06/04 00:26:36;;;;;;;1.70;1.62;;;;;;;15.54;69.15;101057.95;1613889;88;20119;-71
2022/06/04 00:29:05;;;;;;;2.52;2.42;;;;;;;15.59;67.73;101055.45;1636994;87;21126;-70
2022/06/04 00:31:31;;;;;;;2.80;2.10;;;;;;;15.69;66.62;101050.53;1635188;88;21070;-71
2022/06/04 00:33:58;;;;;;;3.27;2.52;;;;;;;15.81;65.76;101048.61;1633474;87;21566;-69
2022/06/04 00:36:24;;;;;;;2.85;2.30;;;;;;;15.91;65.21;101047.67;1643063;87;21194;-69
2022/06/04 00:38:52;;;;;;;2.77;2.58;;;;;;;15.99;64.69;101047.98;1607677;89;21078;-69
2022/06/04 00:41:44;;;;;;;3.47;3.27;;;;;;;16.04;64.38;101049.02;1611408;87;21183;-71
2022/06/04 00:44:19;;;;;;;9.80;7.95;;;;;;;16.08;64.06;101047.56;1607819;88;21633;-70
2022/06/04 00:47:16;;;;;;;9.50;8.60;;;;;;;16.11;65.68;101043.13;1586888;88;21084;-70
2022/06/04 00:49:44;;;;;;;8.13;7.62;;;;;;;16.09;66.00;101043.85;1590341;90;21037;-70
2022/06/04 00:52:14;;;;;;;9.28;8.53;;;;;;;16.04;68.76;101040.95;1617097;88;21102;-70
2022/06/04 00:54:43;;;;;;;8.78;7.97;;;;;;;15.95;70.08;101034.13;1613023;87;21728;-70
2022/06/04 00:57:36;;;;;;;10.03;9.10;;;;;;;15.88;71.05;101033.28;1611607;88;21141;-70
2022/06/04 01:00:15;;;;;;;8.70;7.83;;;;;;;15.79;71.74;101025.96;1597838;89;21133;-71
2022/06/04 01:03:14;;;;;;;8.28;7.35;;;;;;;15.73;70.90;101029.45;1609855;88;21113;-69
2022/06/04 01:06:02;;;;;;;8.93;8.23;;;;;;;15.73;71.71;101033.48;1597524;88;21104;-73
2022/06/04 01:08:55;;;;;;;8.80;8.05;;;;;;;15.67;72.63;101031.59;1600662;89;21089;-69
2022/06/04 01:11:35;;;;;;;8.78;6.33;;;;;;;15.63;73.29;101031.17;1608297;89;21605;-73
2022/06/04 01:14:20;;;;;;;8.35;7.65;;;;;;;15.61;72.84;101028.39;1597394;89;21159;-70
2022/06/04 01:16:58;;;;;;;7.90;7.25;;;;;;;15.64;72.51;101028.81;1597109;88;21399;-70
2022/06/04 01:19:42;;;;;;;8.25;7.55;;;;;;;15.66;73.12;101025.92;1597437;88;21047;-70
2022/06/04 01:22:37;;;;;;;8.40;7.80;;;;;;;15.65;73.24;101023.76;1598072;88;21208;-70
2022/06/04 01:25:27;;;;;;;7.72;7.17;;;;;;;15.63;73.75;101027.14;1609986;87;21587;-69
2022/06/04 01:28:02;;;;;;;10.08;8.80;;;;;;;15.60;74.59;101030.78;1608448;87;21048;-69
2022/06/04 01:30:49;;;;;;;8.78;7.17;;;;;;;15.54;75.05;101029.73;1603914;88;21111;-70
2022/06/04 01:33:35;;;;;;;4.62;4.33;;;;;;;15.52;75.20;101031.77;1626605;87;22506;-70
2022/06/04 01:36:29;;;;;;;5.42;4.92;;;;;;;15.48;72.28;101022.47;1607183;87;21078;-69
2022/06/04 01:39:15;;;;;;;7.20;6.70;;;;;;;15.54;71.39;101017.65;1603921;87;21035;-75
2022/06/04 01:41:51;;;;;;;8.80;7.30;;;;;;;15.58;71.96;101017.55;1611761;87;21640;-71
2022/06/04 01:44:28;;;;;;;7.87;7.17;;;;;;;15.57;73.15;101023.94;1608520;87;21099;-70
2022/06/04 01:46:59;;;;;;;8.63;7.75;;;;;;;15.56;73.82;101031.17;1603768;88;21141;-69
2022/06/04 01:49:44;;;;;;;7.03;6.47;;;;;;;15.56;74.46;101029.02;1600590;88;21069;-69
2022/06/04 01:52:24;;;;;;;6.00;5.60;;;;;;;15.57;74.61;101025.28;1624146;88;21084;-69
2022/06/04 01:55:06;;;;;;;5.65;5.15;;;;;;;15.57;73.85;101018.56;1624406;88;21093;-71
2022/06/04 01:57:50;;;;;;;5.30;5.00;;;;;;;15.57;70.13;101013.19;1601695;89;21138;-70
2022/06/04 02:00:28;;;;;;;4.78;4.53;;;;;;;15.61;68.75;101010.39;1632778;87;21023;-69
2022/06/04 02:03:19;;;;;;;5.65;5.12;;;;;;;15.67;67.90;101014.13;1582444;90;21090;-72
2022/06/04 02:05:51;;;;;;;5.78;5.28;;;;;;;15.73;68.56;101014.67;1600906;89;21073;-70
2022/06/04 02:08:32;;;;;;;6.10;5.70;;;;;;;15.75;68.63;101015.31;1610399;88;21081;-69
2022/06/04 02:11:15;;;;;;;5.45;5.05;;;;;;;15.79;68.35;101018.42;1610510;88;21010;-68
2022/06/04 02:13:46;;;;;;;5.10;4.80;;;;;;;15.84;67.41;101017.27;1582074;89;21090;-70
2022/06/04 02:16:33;;;;;;;5.12;4.80;;;;;;;15.90;66.80;101017.28;1582470;90;21327;-69
2022/06/04 02:19:01;;;;;;;4.42;4.22;;;;;;;15.99;66.20;101015.72;1582521;90;21078;-69
2022/06/04 02:21:29;;;;;;;3.52;3.22;;;;;;;16.14;65.59;101015.83;1583634;89;21047;-69
2022/06/04 02:23:56;;;;;;;3.33;3.12;;;;;;;16.30;64.55;101025.84;1632309;87;21046;-70
2022/06/04 02:26:24;;;;;;;3.67;3.47;;;;;;;16.54;63.10;101026.51;1638247;87;21127;-69
2022/06/04 02:28:52;;;;;;;5.53;3.60;;;;;;;16.57;62.48;101030.63;1638743;87;21026;-70
2022/06/04 02:31:54;;;;;;;4.22;3.92;;;;;;;16.57;62.48;101030.63;1637511;87;21090;-71
2022/06/04 02:34:41;;;;;;;3.60;3.45;;;;;;;16.57;62.21;101031.16;1614812;87;21041;-68
2022/06/04 02:37:31;;;;;;;8.35;3.77;;;;;;;16.46;62.44;101032.12;1614259;87;21589;-69
2022/06/04 02:40:15;;;;;;;4.45;4.15;;;;;;;16.39;62.80;101037.19;1623291;87;21108;-69
2022/06/04 02:43:00;;;;;;;4.05;3.85;;;;;;;16.32;63.46;101038.03;1623531;87;21087;-70
2022/06/04 02:45:52;;;;;;;3.50;3.30;;;;;;;16.31;63.86;101041.77;1624312;88;21144;-69
2022/06/04 02:48:26;;;;;;;4.35;4.10;;;;;;;16.29;64.64;101045.69;1561867;89;21152;-70
2022/06/04 02:51:01;;;;;;;4.25;3.42;;;;;;;16.29;64.64;101044.34;1583834;89;21000;-72
2022/06/04 02:53:30;;;;;;;3.65;3.55;;;;;;;16.33;64.68;101041.54;1561458;90;21188;-70
2022/06/04 02:56:01;;;;;;;4.40;4.10;;;;;;;16.37;64.67;101049.52;1601782;86;21072;-70
2022/06/04 02:58:29;;;;;;;4.37;4.10;;;;;;;16.18;64.42;101010.86;1627956;87;21120;-69
2022/06/04 03:00:58;;;;;;;4.40;4.12;;;;;;;16.45;64.20;101043.09;1634210;86;21025;-69
2022/06/04 03:03:26;;;;;;;4.72;4.33;;;;;;;16.47;63.94;101039.14;1638591;86;21558;-69
2022/06/04 03:06:00;;;;;;;4.53;3.98;;;;;;;16.50;63.19;101037.39;1626465;86;21141;-70
2022/06/04 03:08:32;;;;;;;3.90;3.70;;;;;;;16.46;62.87;101044.73;1638753;86;21691;-70
2022/06/04 03:10:59;;;;;;;3.67;3.47;;;;;;;16.40;62.88;101042.36;1638525;86;21038;-70
2022/06/04 03:13:25;;;;;;;4.08;3.87;;;;;;;16.37;62.79;101047.33;1613382;86;21034;-74
2022/06/04 03:15:53;;;;;;;4.45;4.05;;;;;;;16.37;63.10;101046.84;1638431;86;21115;-76
2022/06/04 03:18:20;;;;;;;3.52;3.25;;;;;;;16.43;63.20;101051.38;1610211;87;21086;-71
2022/06/04 03:20:47;;;;;;;4.50;4.10;;;;;;;16.50;63.73;101047.30;1606897;88;21699;-70
2022/06/04 03:23:13;;;;;;;3.60;2.98;;;;;;;16.59;63.42;101042.53;1632260;86;21577;-70
2022/06/04 03:25:40;;;;;;;3.42;3.17;;;;;;;16.67;62.68;101037.77;1611956;87;21138;-70
2022/06/04 03:28:07;;;;;;;;;;;;;;;16.74;62.48;101035.03;1627840;87;21136;-71
2022/06/04 03:30:35;;;;;;;3.37;3.22;;;;;;;16.85;61.70;101033.59;1611534;87;20150;-77
2022/06/04 03:33:03;;;;;;;3.45;3.25;;;;;;;16.88;62.09;101032.64;1619703;87;21053;-69
2022/06/04 03:35:29;;;;;;;4.92;3.75;;;;;;;17.01;62.60;101032.27;1617753;87;21582;-70
2022/06/04 03:37:55;;;;;;;4.30;3.80;;;;;;;17.16;62.10;101028.80;1624806;87;21073;-71
2022/06/04 03:40:22;;;;;;;3.67;3.45;;;;;;;17.37;61.62;101032.22;1611107;87;21129;-70
2022/06/04 03:42:50;;;;;;;2.75;2.65;;;;;;;17.55;60.80;101031.47;1623829;87;21617;-70
2022/06/04 03:45:18;;;;;;;3.22;3.05;;;;;;;17.74;59.42;101041.80;1611822;87;21100;-70
2022/06/04 03:47:45;;;;;;;3.45;3.15;;;;;;;17.82;58.86;101036.13;1610616;87;21537;-71
2022/06/04 03:50:16;;;;;;;4.58;3.70;;;;;;;17.94;58.71;101041.70;1624638;87;21073;-71
2022/06/04 03:52:46;;;;;;;3.67;3.37;;;;;;;18.05;58.40;101040.98;1624977;87;21032;-70
2022/06/04 03:55:15;;;;;;;2.92;2.83;;;;;;;18.18;58.43;101042.73;1625180;87;21079;-74
2022/06/04 03:57:48;;;;;;;5.22;3.67;;;;;;;18.31;57.95;101041.27;1615063;87;21022;-70
2022/06/04 04:00:32;;;;;;;3.77;3.47;;;;;;;18.78;57.12;101032.14;1633787;86;21120;-71
2022/06/04 04:03:04;;;;;;;3.47;3.30;;;;;;;19.16;56.37;101043.77;1620134;86;21134;-71
2022/06/04 04:05:35;;;;;;;4.12;3.77;;;;;;;19.36;55.81;101044.83;1616467;88;21136;-70
2022/06/04 04:08:05;;;;;;;3.67;3.37;;;;;;;19.40;55.06;101042.80;1617097;88;21046;-70
2022/06/04 04:10:33;;;;;;;4.33;3.87;;;;;;;19.44;54.80;101040.47;1643302;87;21092;-70
2022/06/04 04:13:00;;;;;;;4.42;3.85;;;;;;;19.46;54.44;101043.77;1612481;86;21144;-71
2022/06/04 04:15:27;;;;;;;5.55;2.90;;;;;;;19.47;54.27;101045.39;1612235;87;21080;-71
2022/06/04 04:17:54;;;;;;;6.53;3.62;;;;;;;19.56;54.22;101045.37;1611963;88;21107;-70
2022/06/04 04:20:27;;;;;;;4.87;3.10;;;;;;;19.69;53.91;101043.53;1610761;87;21060;-71
2022/06/04 04:22:54;;;;;;;3.52;2.98;;;;;;;19.76;53.60;101049.67;1618105;87;21052;-72
2022/06/04 04:25:25;;;;;;;2.42;2.33;;;;;;;19.79;52.37;101051.92;1611918;88;21021;-71
2022/06/04 04:27:52;;;;;;;3.77;3.45;;;;;;;19.72;51.19;101051.16;1609317;87;21109;-70
2022/06/04 04:30:23;;;;;;;3.17;2.87;;;;;;;19.53;51.30;101044.47;1614411;87;21139;-72
2022/06/04 04:32:52;;;;;;;3.95;2.42;;;;;;;19.35;51.87;101044.55;1618048;87;21131;-71
2022/06/04 04:35:24;;;;;;;2.95;2.75;;;;;;;19.27;52.37;101051.09;1611986;86;21059;-71
2022/06/04 04:37:52;;;;;;;3.85;2.15;;;;;;;19.24;53.22;101055.06;1608343;87;21182;-70
2022/06/04 04:40:23;;;;;;;2.35;2.15;;;;;;;19.23;52.58;101045.33;1610909;87;21115;-77
2022/06/04 04:42:49;;;;;;;2.22;2.02;;;;;;;19.46;52.52;101045.11;1611975;88;21623;-71
2022/06/04 04:45:18;;;;;;;1.98;1.87;;;;;;;19.69;52.19;101048.94;1611806;86;21560;-69
2022/06/04 04:47:47;;;;;;;2.50;2.17;;;;;;;19.83;50.66;101049.05;1609914;87;21048;-74
2022/06/04 04:50:22;;;;;;;2.80;2.40;;;;;;;19.80;49.59;101052.23;1614387;87;21202;-70
2022/06/04 04:52:51;;;;;;;2.35;2.17;;;;;;;19.78;49.83;101049.75;1609874;87;21634;-73
2022/06/04 04:55:18;;;;;;;3.30;2.52;;;;;;;19.97;49.40;101050.48;1611854;87;21064;-71
2022/06/04 04:57:44;;;;;;;4.10;2.08;;;;;;;20.39;49.47;101046.31;1611042;87;21046;-73
2022/06/04 05:00:15;;;;;;;4.22;2.08;;;;;;;21.08;48.39;101043.44;1611278;87;21072;-71
2022/06/04 05:02:43;;;;;;;4.45;2.05;;;;;;;21.93;46.98;101045.27;1609220;88;21164;-71
2022/06/04 05:05:11;;;;;;;5.90;2.42;;;;;;;22.81;44.22;101038.38;1615640;87;21135;-71
2022/06/04 05:07:39;;;;;;;7.00;2.25;;;;;;;23.43;42.16;101038.03;1619620;87;21019;-71
2022/06/04 05:10:09;;;;;;;2.85;1.40;;;;;;;23.72;41.31;101033.66;1619987;87;21187;-74
2022/06/04 05:12:35;;;;;;;2.60;1.72;;;;;;;23.82;41.96;101035.12;1620687;86;21177;-71
2022/06/04 05:15:03;;;;;;;1.45;1.30;;;;;;;23.92;41.34;101028.94;1618773;87;21091;-77
2022/06/04 05:17:29;;;;;;;3.22;1.07;;;;;;;24.02;41.59;101039.91;1611200;87;21116;-72
2022/06/04 05:19:56;;;;;;;1.50;1.35;;;;;;;24.28;41.00;101034.66;1613169;87;21107;-74
2022/06/04 05:22:22;;;;;;;2.80;1.30;;;;;;;24.69;41.38;101033.51;1619057;87;21170;-72
2022/06/04 05:24:49;;;;;;;3.70;0.80;;;;;;;25.14;39.59;101036.13;1612162;87;21074;-70
2022/06/04 05:27:15;;;;;;;2.10;0.65;;;;;;;25.48;38.27;101041.68;1611835;88;21045;-70
2022/06/04 05:29:42;;;;;;;4.37;1.07;;;;;;;25.60;38.38;101034.06;1613170;87;21172;-71
2022/06/04 05:32:10;;;;;;;2.08;0.65;;;;;;;25.82;37.73;101033.77;1613418;87;21572;-71
2022/06/04 05:34:38;;;;;;;0.78;0.65;;;;;;;26.04;37.17;101029.42;1614497;87;21798;-71
2022/06/04 05:37:06;;;;;;;3.80;3.42;;;;;;;26.27;36.53;101029.38;1611372;87;21104;-69
2022/06/04 05:39:32;;;;;;;0.23;0.20;;;;;;;26.57;36.83;101024.36;1611897;87;21560;-71
2022/06/04 05:42:01;;;;;;;1.65;0.78;;;;;;;26.75;34.94;101021.59;1611625;88;21096;-72
2022/06/04 05:44:28;;;;;;;1.15;0.47;;;;;;;26.73;34.82;101023.80;1611677;86;21040;-73
2022/06/04 05:46:55;;;;;;;2.15;0.50;;;;;;;26.77;34.96;101018.59;1612863;87;21040;-75
2022/06/04 05:49:22;;;;;;;1.00;0.33;;;;;;;26.87;34.18;101019.89;1613558;87;21190;-80
2022/06/04 05:51:50;;;;;;;0.57;0.30;;;;;;;26.76;33.71;101022.41;1603940;87;21536;-72
2022/06/04 05:54:19;;;;;;;1.65;0.80;;;;;;;26.62;34.74;101020.83;1606999;87;21048;-71
2022/06/04 05:56:48;;;;;;;1.80;0.37;;;;;;;26.56;34.80;101021.90;1611917;87;21428;-71
2022/06/04 05:59:18;;;;;;;1.32;0.35;;;;;;;26.68;34.07;101029.84;1611388;87;21595;-72
2022/06/04 06:01:46;;;;;;;2.67;0.40;;;;;;;26.91;33.50;101018.22;1611970;87;21172;-70
2022/06/04 06:04:14;;;;;;;0.70;0.33;;;;;;;27.17;33.81;101020.83;1614211;87;21059;-73
2022/06/04 06:06:46;;;;;;;1.35;0.30;;;;;;;27.35;33.37;101015.25;1612484;87;21108;-72
2022/06/04 06:09:16;;;;;;;1.32;0.50;;;;;;;27.54;33.28;101008.00;1611681;87;21119;-71
2022/06/04 06:11:43;;;;;;;0.50;0.20;;;;;;;27.78;32.17;101008.61;1612956;87;21083;-73
2022/06/04 06:14:11;;;;;;;1.55;0.20;;;;;;;27.71;30.49;101009.52;1612407;87;21048;-72
2022/06/04 06:16:43;;;;;;;1.67;0.20;;;;;;;27.54;31.38;101004.45;1611424;87;21052;-72
2022/06/04 06:19:12;;;;;;;2.35;0.30;;;;;;;27.55;32.45;101006.87;1613689;87;21152;-73
2022/06/04 06:21:40;;;;;;;1.25;0.10;;;;;;;27.37;29.72;101002.13;1627998;87;21157;-71
2022/06/04 06:24:08;;;;;;;0.30;0.30;;;;;;;26.74;30.44;100998.07;1620621;86;21075;-77
2022/06/04 06:26:49;;;;;;;10.15;0.20;;;;;;;26.25;31.48;101002.06;1609272;87;21152;-71
2022/06/04 06:29:17;;;;;;;0.65;0.20;;;;;;;26.12;32.95;100996.63;1611924;87;21107;-71
2022/06/04 06:31:45;;;;;;;0.20;0.20;;;;;;;26.32;31.76;100993.03;1612080;88;21043;-72
2022/06/04 06:34:12;;;;;;;0.10;0.10;;;;;;;26.36;32.13;100990.01;1612868;87;21115;-72
2022/06/04 06:36:38;;;;;;;0.40;0.17;;;;;;;26.38;31.05;100988.63;1612314;87;21158;-71
2022/06/04 06:39:05;;;;;;;3.12;0.10;;;;;;;26.41;32.18;100983.97;1613660;87;21140;-71
2022/06/04 06:41:31;;;;;;;0.45;0.10;;;;;;;26.56;31.00;100981.73;1611990;87;21108;-71
2022/06/04 06:43:58;;;;;;;0.55;0.10;;;;;;;26.76;30.46;100980.02;1608559;88;21110;-79
2022/06/04 06:46:41;;;;;;;0.95;0.23;;;;;;;26.96;30.12;100971.70;1628135;86;21124;-72
2022/06/04 06:49:22;;;;;;;0.40;0.10;;;;;;;26.94;29.37;100965.70;1612504;87;21151;-72
2022/06/04 06:51:53;;;;;;;1.47;0.20;;;;;;;26.55;29.62;100960.95;1611557;87;21520;-74
2022/06/04 06:54:26;;;;;;;0.10;0.10;;;;;;;26.05;30.33;100954.59;1625332;87;21067;-71
2022/06/04 06:56:54;;;;;;;1.00;0.20;;;;;;;25.61;30.94;100953.80;1612588;88;21044;-71
2022/06/04 07:00:24;;;;;;;0.95;0.10;;;;;;;24.90;31.48;100960.78;1801806;77;22785;-71
2022/06/04 07:02:51;;;;;;;0.85;0.40;;;;;;;24.64;32.02;100950.38;1735238;81;20984;-71
2022/06/04 07:05:17;;;;;;;0.17;0.17;;;;;;;24.51;32.71;100958.47;1738843;81;21018;-70
2022/06/04 07:07:45;;;;;;;0.13;0.10;;;;;;;24.43;33.11;100963.05;1730950;81;21012;-71
2022/06/04 07:10:11;;;;;;;0.40;0.10;;;;;;;24.31;32.82;100967.91;1735243;81;21080;-81
2022/06/04 07:12:39;;;;;;;0.55;0.10;;;;;;;24.34;32.72;100954.59;1706747;82;21120;-71
2022/06/04 07:15:10;;;;;;;0.35;0.10;;;;;;;24.47;32.82;100946.47;1719888;83;21223;-79
2022/06/04 07:17:36;;;;;;;0.10;0.10;;;;;;;24.68;32.04;100932.40;1703550;83;21033;-74
2022/06/04 07:20:03;;;;;;;0.47;0.13;;;;;;;24.96;32.65;100937.92;1726053;83;20982;-74
2022/06/04 07:22:30;;;;;;;0.10;0.10;;;;;;;25.20;30.93;100934.66;1703099;83;21125;-73
2022/06/04 07:24:57;;;;;;;0.28;0.17;;;;;;;25.30;30.93;100933.34;1667405;85;21163;-71
2022/06/04 07:27:23;;;;;;;0.20;0.10;;;;;;;25.47;30.75;100935.80;1641113;86;21008;-70
2022/06/04 07:29:49;;;;;;;0.10;0.10;;;;;;;25.73;30.10;100935.75;1633714;86;21055;-72
2022/06/04 07:32:15;;;;;;;0.17;0.10;;;;;;;26.00;29.36;100924.55;1645526;86;21121;-80
2022/06/04 07:34:41;;;;;;;0.10;0.10;;;;;;;26.15;28.84;100924.50;1674586;84;21527;-75
2022/06/04 07:37:09;;;;;;;0.10;0.10;;;;;;;26.14;28.82;100925.58;1687936;85;21167;-72
2022/06/04 07:39:36;;;;;;;0.30;0.10;;;;;;;25.99;29.07;100915.55;1686854;84;21631;-70
2022/06/04 07:42:05;;;;;;;0.60;0.20;;;;;;;25.84;29.73;100912.27;1687858;83;21065;-72
2022/06/04 07:44:31;;;;;;;0.20;0.20;;;;;;;25.75;30.19;100917.19;1682479;84;21536;-72
2022/06/04 07:46:57;;;;;;;0.45;0.20;;;;;;;25.69;29.90;100913.64;1665124;85;21074;-73
2022/06/04 07:49:23;;;;;;;0.20;0.20;;;;;;;25.65;29.76;100907.10;1678290;84;21561;-79
2022/06/04 07:51:51;;;;;;;0.93;0.20;;;;;;;25.59;32.50;100914.48;1649124;85;21105;-71
2022/06/04 07:54:18;;;;;;;0.45;0.20;;;;;;;25.58;32.74;100913.39;1686395;84;21581;-76
2022/06/04 07:56:44;;;;;;;0.20;0.20;;;;;;;25.52;33.43;100914.49;1688111;84;21488;-71
2022/06/04 07:59:15;;;;;;;0.68;0.10;;;;;;;25.47;33.39;100915.85;1695905;83;21158;-74
2022/06/04 08:01:42;;;;;;;4.67;0.28;;;;;;;25.47;33.76;100913.12;1701595;83;21457;-73
2022/06/04 08:04:10;;;;;;;0.40;0.10;;;;;;;25.36;33.68;100907.69;1672368;84;21148;-74
2022/06/04 08:06:39;;;;;;;0.37;0.10;;;;;;;25.29;33.43;100911.78;1717453;83;21126;-73
2022/06/04 08:09:08;;;;;;;4.00;0.20;;;;;;;25.22;31.86;100914.73;1718896;83;21075;-71
2022/06/04 08:11:38;;;;;;;0.40;0.10;;;;;;;25.17;32.88;100912.03;1716609;83;21474;-72
2022/06/04 08:14:19;;;;;;;0.30;0.23;;;;;;;25.11;32.15;100918.55;1696862;83;21032;-71
2022/06/04 08:16:52;;;;;;;0.25;0.10;;;;;;;25.01;30.56;100903.81;1654364;85;21012;-70
2022/06/04 08:19:23;;;;;;;0.97;0.10;;;;;;;24.84;31.78;100901.89;1660988;85;21045;-71
2022/06/04 08:21:52;;;;;;;0.90;0.20;;;;;;;24.79;31.63;100901.35;1695492;83;21700;-71
2022/06/04 08:24:20;;;;;;;0.20;0.20;;;;;;;24.74;33.69;100900.52;1681233;83;20970;-72
2022/06/04 08:26:53;;;;;;;3.12;0.50;;;;;;;24.74;33.30;100893.70;1695083;83;21033;-72
2022/06/04 08:29:18;;;;;;;0.25;0.20;;;;;;;24.78;33.79;100899.70;1684823;83;21195;-71
2022/06/04 08:31:45;;;;;;;0.90;0.10;;;;;;;24.82;33.54;100892.61;1677968;84;21033;-74
2022/06/04 08:34:11;;;;;;;1.30;0.25;;;;;;;24.77;34.21;100887.17;1687259;83;21041;-73
2022/06/04 08:36:37;;;;;;;0.20;0.20;;;;;;;24.75;34.70;100893.44;1692088;83;21061;-75
2022/06/04 08:39:05;;;;;;;0.10;0.10;;;;;;;24.71;34.30;100888.78;1695423;83;20998;-74
2022/06/04 08:42:13;;;;;;;0.28;0.20;;;;;;;24.65;32.90;100890.67;1691562;83;21309;-74
2022/06/04 08:44:44;;;;;;;0.30;0.30;;;;;;;24.63;31.56;100885.49;1662421;84;21085;-72
2022/06/04 08:47:34;;;;;;;0.98;0.30;;;;;;;24.52;33.06;100885.19;1704176;83;21112;-73
2022/06/04 08:50:12;;;;;;;1.62;0.20;;;;;;;24.46;34.42;100876.15;1703750;83;21023;-71
2022/06/04 08:52:44;;;;;;;0.65;0.10;;;;;;;24.43;34.08;100875.86;1671031;84;21081;-76
2022/06/04 08:58:32;;;;;;;0.90;0.20;;;;;;;24.28;33.50;100876.11;1646168;85;21087;-73
2022/06/04 09:01:11;;;;;;;0.53;0.20;;;;;;;24.17;32.84;100871.70;1655819;84;21030;-72
2022/06/04 09:04:04;;;;;;;1.07;0.10;;;;;;;24.02;32.72;100884.70;1664983;85;21069;-71
2022/06/04 09:06:51;;;;;;;0.20;0.20;;;;;;;23.90;32.85;100878.13;1682206;84;21124;-71
2022/06/04 09:09:22;;;;;;;1.05;0.20;;;;;;;23.78;33.11;100878.02;1681523;84;21514;-74
2022/06/04 09:12:01;;;;;;;0.53;0.20;;;;;;;23.66;33.22;100873.59;1672997;84;21046;-71
2022/06/04 09:14:47;;;;;;;0.15;0.10;;;;;;;23.58;33.44;100882.23;1682353;84;21077;-73
2022/06/04 09:17:42;;;;;;;0.82;0.15;;;;;;;23.44;33.24;100876.44;1682235;84;21051;-71
2022/06/04 09:20:23;;;;;;;2.12;0.20;;;;;;;23.31;33.37;100867.36;1682426;84;21167;-77
2022/06/04 09:22:54;;;;;;;0.20;0.20;;;;;;;23.31;33.57;100858.66;1681687;84;21087;-71
2022/06/04 09:25:24;;;;;;;0.10;0.10;;;;;;;23.40;34.11;100865.80;1682387;84;21635;-72
2022/06/04 09:28:02;;;;;;;2.22;0.20;;;;;;;23.49;33.80;100860.16;1682024;84;21022;-72
2022/06/04 09:30:41;;;;;;;0.20;0.20;;;;;;;23.54;33.60;100851.74;1682296;84;21121;-73
2022/06/04 09:33:51;;;;;;;0.10;0.10;;;;;;;23.65;33.47;100853.45;1681835;84;21199;-72
2022/06/04 09:36:22;;;;;;;0.30;0.10;;;;;;;23.75;32.79;100860.30;1665221;85;21488;-73
2022/06/04 09:39:06;;;;;;;0.25;0.10;;;;;;;23.68;32.66;100852.93;1652014;85;21097;-73
2022/06/04 09:41:34;;;;;;;0.20;0.20;;;;;;;23.60;33.13;100849.33;1651659;85;21025;-72
2022/06/04 09:44:05;;;;;;;0.50;0.10;;;;;;;23.58;32.96;100851.48;1652204;87;21011;-71
2022/06/04 09:46:32;;;;;;;0.37;0.28;;;;;;;23.59;33.32;100843.07;1649455;85;21194;-74
2022/06/04 09:48:59;;;;;;;0.10;0.10;;;;;;;23.62;33.48;100843.92;1689211;84;21049;-76
2022/06/04 09:51:29;;;;;;;2.77;0.10;;;;;;;23.67;33.08;100841.75;1650684;85;21029;-73
2022/06/04 09:54:04;;;;;;;0.42;0.10;;;;;;;23.68;32.81;100845.58;1664737;85;21022;-74
2022/06/04 09:56:39;;;;;;;1.32;0.20;;;;;;;23.70;33.25;100840.69;1679858;83;21060;-72
2022/06/04 09:59:18;;;;;;;1.05;0.20;;;;;;;23.81;32.98;100838.88;1720480;83;21065;-73
2022/06/04 10:02:13;;;;;;;0.10;0.10;;;;;;;23.90;33.15;100834.56;1699482;83;21108;-76
2022/06/04 10:04:58;;;;;;;0.57;0.15;;;;;;;23.97;33.21;100837.03;1684489;84;20991;-74
2022/06/04 10:07:36;;;;;;;0.20;0.20;;;;;;;24.07;33.42;100831.64;1686962;84;21531;-71
2022/06/04 10:10:16;;;;;;;0.35;0.10;;;;;;;24.15;32.67;100832.19;1691507;84;21013;-72
2022/06/04 10:15:40;;;;;;;0.23;0.20;;;;;;;24.26;32.28;100821.08;1658280;85;21048;-70
2022/06/04 10:18:29;;;;;;;0.88;0.20;;;;;;;24.31;32.13;100818.91;1701786;83;21057;-72
2022/06/04 10:21:07;;;;;;;0.30;0.20;;;;;;;24.22;32.02;100811.81;1692321;83;21085;-72
2022/06/04 10:23:47;;;;;;;0.68;0.15;;;;;;;24.09;32.22;100806.84;1684559;83;21081;-72
2022/06/04 10:26:40;;;;;;;1.77;0.40;;;;;;;24.09;32.31;100809.56;1670970;84;21030;-71
2022/06/04 10:29:47;;;;;;;0.23;0.17;;;;;;;24.18;32.05;100807.16;1672653;84;21124;-73
2022/06/04 10:32:19;;;;;;;0.57;0.20;;;;;;;24.13;31.83;100812.05;1680331;84;21206;-71
2022/06/04 10:35:15;;;;;;;0.20;0.20;;;;;;;24.13;31.83;100812.05;1679845;84;21426;-77
2022/06/04 10:38:12;;;;;;;0.20;0.10;;;;;;;24.05;32.06;100812.55;1679947;84;21172;-70
2022/06/04 10:40:50;;;;;;;0.30;0.20;;;;;;;23.95;32.20;100812.53;1674102;84;21161;-77
2022/06/04 10:44:11;;;;;;;0.30;0.20;;;;;;;23.89;32.04;100811.69;1679995;84;21065;-71
2022/06/04 10:47:04;;;;;;;0.40;0.20;;;;;;;23.77;32.41;100799.64;1663001;85;21013;-75
2022/06/04 10:50:10;;;;;;;0.35;0.20;;;;;;;23.70;32.68;100792.25;1669950;84;21082;-71
2022/06/04 10:52:54;;;;;;;0.20;0.20;;;;;;;23.64;32.58;100793.28;1687787;84;21014;-72
2022/06/04 10:55:38;;;;;;;0.10;0.10;;;;;;;23.54;32.84;100793.25;1679957;84;21078;-85
2022/06/04 10:58:26;;;;;;;0.93;0.20;;;;;;;23.40;33.33;100796.44;1681005;84;21127;-73
2022/06/04 11:01:09;;;;;;;0.55;0.20;;;;;;;23.27;33.37;100792.82;1678600;84;21116;-73
2022/06/04 11:03:50;;;;;;;0.10;0.10;;;;;;;23.19;33.35;100791.93;1690945;84;21064;-73
2022/06/04 11:06:37;;;;;;;0.75;0.10;;;;;;;23.18;33.87;100790.31;1685728;84;21193;-78
2022/06/04 11:09:18;;;;;;;0.20;0.20;;;;;;;23.24;33.51;100784.62;1683364;84;21167;-71
2022/06/04 11:12:03;;;;;;;0.75;0.10;;;;;;;23.30;33.57;100786.84;1693995;84;21533;-75
2022/06/04 11:14:53;;;;;;;0.10;0.10;;;;;;;23.34;33.31;100783.89;1689774;83;21057;-73
2022/06/04 11:17:27;;;;;;;0.40;0.10;;;;;;;23.39;33.44;100780.38;1725907;82;21013;-73
2022/06/04 11:20:03;;;;;;;1.67;0.10;;;;;;;23.50;33.42;100776.63;1720287;82;21814;-73
2022/06/04 11:22:40;;;;;;;0.20;0.20;;;;;;;23.62;33.41;100772.33;1724438;82;21399;-80
2022/06/04 11:25:25;;;;;;;1.12;0.15;;;;;;;23.75;32.94;100766.95;1725913;82;21139;-77
2022/06/04 11:28:00;;;;;;;0.70;0.45;;;;;;;23.85;33.10;100763.77;1726242;82;21599;-73
2022/06/04 11:30:41;;;;;;;0.53;0.20;;;;;;;23.97;33.08;100765.43;1697042;84;21050;-79
2022/06/04 11:33:38;;;;;;;0.30;0.20;;;;;;;24.12;32.57;100768.75;1717460;82;21071;-78
2022/06/04 11:36:19;;;;;;;0.98;0.80;;;;;;;24.16;32.46;100768.48;1694274;84;21084;-77
2022/06/04 11:39:11;;;;;;;0.95;0.88;;;;;;;24.10;32.55;100755.39;1668784;84;21148;-77
2022/06/04 11:41:57;;;;;;;1.75;0.20;;;;;;;24.11;33.25;100755.69;1666198;84;21530;-77
2022/06/04 11:44:55;;;;;;;1.15;0.20;;;;;;;24.12;32.61;100768.20;1671446;84;21002;-77
2022/06/04 11:47:37;;;;;;;;;;;;;;;24.10;32.65;100758.12;1726556;82;21061;-77
2022/06/04 11:50:38;;;;;;;0.20;0.20;;;;;;;24.06;32.83;100752.39;1708638;83;20134;-78
2022/06/04 11:53:28;;;;;;;0.28;0.10;;;;;;;23.99;32.89;100757.81;1704722;83;21354;-76
2022/06/04 11:56:26;;;;;;;0.82;0.20;;;;;;;23.95;32.86;100761.61;1699818;82;21084;-76
2022/06/04 11:59:14;;;;;;;0.20;0.20;;;;;;;23.93;32.69;100751.53;1647128;85;21674;-77
2022/06/04 12:01:57;;;;;;;0.85;0.20;;;;;;;23.89;32.86;100748.53;1666973;84;21053;-77
2022/06/04 12:04:41;;;;;;;0.20;0.20;;;;;;;23.86;32.81;100749.05;1668195;85;21021;-76
2022/06/04 12:07:37;;;;;;;0.78;0.10;;;;;;;23.83;33.02;100745.52;1670041;84;21065;-76
2022/06/04 12:10:30;;;;;;;3.30;0.20;;;;;;;23.80;33.27;100739.23;1660698;84;21276;-78
2022/06/04 12:13:13;;;;;;;0.13;0.13;;;;;;;23.74;33.43;100736.75;1668579;85;21048;-78
2022/06/04 12:15:51;;;;;;;0.20;0.20;;;;;;;23.68;33.25;100732.64;1664234;84;21125;-77